sensor_id;sensor_type;location;lat;lon;timestamp;P1;durP1;ratioP1;P2;durP2;ratioP2
9445;SDS011;4761;49.490;10.908;2023-05-10T00:01:33;1.40;;;1.30;;
9445;SDS011;4761;49.490;10.908;2023-05-10T00:03:59;1.50;;;1.40;;
9445;SDS011;4761;49.490;10.908;2023-05-10T00:06:24;1.20;;;1.20;;
9445;SDS011;4761;49.490;10.908;2023-05-10T00:08:50;1.60;;;1.50;;
9445;SDS011;4761;49.490;10.908;2023-05-10T00:11:15;1.50;;;1.40;;
9445;SDS011;4761;49.490;10.908;2023-05-10T00:13:41;1.40;;;1.30;;
9445;SDS011;4761;49.490;10.908;2023-05-10T00:16:06;1.47;;;1.37;;
9445;SDS011;4761;49.490;10.908;2023-05-10T00:18:32;1.30;;;1.20;;
9445;SDS011;4761;49.490;10.908;2023-05-10T00:20:57;1.40;;;1.30;;
9445;SDS011;4761;49.490;10.908;2023-05-10T00:23:23;1.60;;;1.50;;
9445;SDS011;4761;49.490;10.908;2023-05-10T00:25:48;1.50;;;1.40;;
9445;SDS011;4761;49.490;10.908;2023-05-10T00:28:14;1.53;;;1.43;;
9445;SDS011;4761;49.490;10.908;2023-05-10T00:30:39;1.87;;;1.77;;
9445;SDS011;4761;49.490;10.908;2023-05-10T00:33:05;1.20;;;1.10;;
9445;SDS011;4761;49.490;10.908;2023-05-10T00:35:30;2.10;;;1.43;;
9445;SDS011;4761;49.490;10.908;2023-05-10T00:37:56;1.50;;;1.40;;
9445;SDS011;4761;49.490;10.908;2023-05-10T00:40:22;1.63;;;1.53;;
9445;SDS011;4761;49.490;10.908;2023-05-10T00:42:47;1.50;;;1.40;;
9445;SDS011;4761;49.490;10.908;2023-05-10T00:45:13;1.40;;;1.30;;
9445;SDS011;4761;49.490;10.908;2023-05-10T00:47:38;1.53;;;1.40;;
9445;SDS011;4761;49.490;10.908;2023-05-10T00:50:04;1.40;;;1.30;;
9445;SDS011;4761;49.490;10.908;2023-05-10T00:52:31;1.60;;;1.50;;
9445;SDS011;4761;49.490;10.908;2023-05-10T00:54:56;1.40;;;1.30;;
9445;SDS011;4761;49.490;10.908;2023-05-10T00:57:23;1.37;;;1.27;;
9445;SDS011;4761;49.490;10.908;2023-05-10T00:59:49;1.60;;;1.50;;
9445;SDS011;4761;49.490;10.908;2023-05-10T01:02:15;1.93;;;1.40;;
9445;SDS011;4761;49.490;10.908;2023-05-10T01:04:41;1.20;;;1.10;;
9445;SDS011;4761;49.490;10.908;2023-05-10T01:07:08;1.40;;;1.30;;
9445;SDS011;4761;49.490;10.908;2023-05-10T01:09:34;1.70;;;1.60;;
9445;SDS011;4761;49.490;10.908;2023-05-10T01:11:59;1.63;;;1.53;;
9445;SDS011;4761;49.490;10.908;2023-05-10T01:14:26;3.20;;;1.50;;
9445;SDS011;4761;49.490;10.908;2023-05-10T01:16:52;1.47;;;1.37;;
9445;SDS011;4761;49.490;10.908;2023-05-10T01:19:19;1.70;;;1.60;;
9445;SDS011;4761;49.490;10.908;2023-05-10T01:24:30;1.50;;;1.40;;
9445;SDS011;4761;49.490;10.908;2023-05-10T01:27:15;1.30;;;1.20;;
9445;SDS011;4761;49.490;10.908;2023-05-10T01:32:31;1.60;;;1.50;;
9445;SDS011;4761;49.490;10.908;2023-05-10T01:35:06;1.50;;;1.40;;
9445;SDS011;4761;49.490;10.908;2023-05-10T01:37:59;2.17;;;1.33;;
9445;SDS011;4761;49.490;10.908;2023-05-10T01:40:32;1.40;;;1.30;;
9445;SDS011;4761;49.490;10.908;2023-05-10T01:43:10;1.43;;;1.33;;
9445;SDS011;4761;49.490;10.908;2023-05-10T01:48:15;1.50;;;1.40;;
9445;SDS011;4761;49.490;10.908;2023-05-10T01:50:43;1.67;;;1.57;;
9445;SDS011;4761;49.490;10.908;2023-05-10T01:53:11;1.60;;;1.50;;
9445;SDS011;4761;49.490;10.908;2023-05-10T01:55:46;1.27;;;1.17;;
9445;SDS011;4761;49.490;10.908;2023-05-10T01:58:15;1.60;;;1.50;;
9445;SDS011;4761;49.490;10.908;2023-05-10T02:00:52;1.27;;;1.17;;
9445;SDS011;4761;49.490;10.908;2023-05-10T02:03:20;1.47;;;1.37;;
9445;SDS011;4761;49.490;10.908;2023-05-10T02:05:48;1.50;;;1.40;;
9445;SDS011;4761;49.490;10.908;2023-05-10T02:08:15;1.53;;;1.43;;
9445;SDS011;4761;49.490;10.908;2023-05-10T02:10:43;2.57;;;1.40;;
9445;SDS011;4761;49.490;10.908;2023-05-10T02:13:11;1.40;;;1.30;;
9445;SDS011;4761;49.490;10.908;2023-05-10T02:15:38;1.17;;;1.13;;
9445;SDS011;4761;49.490;10.908;2023-05-10T02:18:05;1.30;;;1.20;;
9445;SDS011;4761;49.490;10.908;2023-05-10T02:20:31;1.83;;;1.20;;
9445;SDS011;4761;49.490;10.908;2023-05-10T02:22:58;1.30;;;1.20;;
9445;SDS011;4761;49.490;10.908;2023-05-10T02:25:24;1.30;;;1.20;;
9445;SDS011;4761;49.490;10.908;2023-05-10T02:27:51;1.17;;;1.17;;
9445;SDS011;4761;49.490;10.908;2023-05-10T02:30:20;1.33;;;1.23;;
9445;SDS011;4761;49.490;10.908;2023-05-10T02:32:46;1.33;;;1.23;;
9445;SDS011;4761;49.490;10.908;2023-05-10T02:35:13;1.97;;;1.00;;
9445;SDS011;4761;49.490;10.908;2023-05-10T02:37:40;1.17;;;1.13;;
9445;SDS011;4761;49.490;10.908;2023-05-10T02:40:06;1.03;;;1.03;;
9445;SDS011;4761;49.490;10.908;2023-05-10T02:42:35;1.30;;;1.20;;
9445;SDS011;4761;49.490;10.908;2023-05-10T02:45:04;1.10;;;1.10;;
9445;SDS011;4761;49.490;10.908;2023-05-10T02:47:33;1.23;;;1.13;;
9445;SDS011;4761;49.490;10.908;2023-05-10T02:49:59;1.20;;;1.10;;
9445;SDS011;4761;49.490;10.908;2023-05-10T02:52:27;1.40;;;1.20;;
9445;SDS011;4761;49.490;10.908;2023-05-10T02:54:58;1.00;;;1.00;;
9445;SDS011;4761;49.490;10.908;2023-05-10T02:57:26;1.53;;;1.20;;
9445;SDS011;4761;49.490;10.908;2023-05-10T02:59:54;1.10;;;1.03;;
9445;SDS011;4761;49.490;10.908;2023-05-10T03:02:20;1.50;;;1.10;;
9445;SDS011;4761;49.490;10.908;2023-05-10T03:04:46;1.00;;;1.00;;
9445;SDS011;4761;49.490;10.908;2023-05-10T03:07:12;1.27;;;1.10;;
9445;SDS011;4761;49.490;10.908;2023-05-10T03:09:38;1.03;;;1.00;;
9445;SDS011;4761;49.490;10.908;2023-05-10T03:12:07;0.90;;;0.90;;
9445;SDS011;4761;49.490;10.908;2023-05-10T03:17:32;1.00;;;1.00;;
9445;SDS011;4761;49.490;10.908;2023-05-10T03:20:08;1.00;;;1.00;;
9445;SDS011;4761;49.490;10.908;2023-05-10T03:22:45;0.80;;;0.80;;
9445;SDS011;4761;49.490;10.908;2023-05-10T03:25:12;1.03;;;1.00;;
9445;SDS011;4761;49.490;10.908;2023-05-10T03:27:41;0.80;;;0.80;;
9445;SDS011;4761;49.490;10.908;2023-05-10T03:30:10;0.90;;;0.90;;
9445;SDS011;4761;49.490;10.908;2023-05-10T03:32:37;0.70;;;0.70;;
9445;SDS011;4761;49.490;10.908;2023-05-10T03:35:09;0.80;;;0.80;;
9445;SDS011;4761;49.490;10.908;2023-05-10T03:37:36;0.90;;;0.87;;
9445;SDS011;4761;49.490;10.908;2023-05-10T03:40:02;0.90;;;0.83;;
9445;SDS011;4761;49.490;10.908;2023-05-10T03:42:28;0.90;;;0.80;;
9445;SDS011;4761;49.490;10.908;2023-05-10T03:44:54;0.80;;;0.80;;
9445;SDS011;4761;49.490;10.908;2023-05-10T03:47:20;0.70;;;0.70;;
9445;SDS011;4761;49.490;10.908;2023-05-10T03:49:45;0.63;;;0.63;;
9445;SDS011;4761;49.490;10.908;2023-05-10T03:52:11;0.70;;;0.70;;
9445;SDS011;4761;49.490;10.908;2023-05-10T03:54:37;0.80;;;0.70;;
9445;SDS011;4761;49.490;10.908;2023-05-10T03:57:02;0.70;;;0.70;;
9445;SDS011;4761;49.490;10.908;2023-05-10T03:59:28;0.80;;;0.80;;
9445;SDS011;4761;49.490;10.908;2023-05-10T04:01:54;1.17;;;1.07;;
9445;SDS011;4761;49.490;10.908;2023-05-10T04:04:20;0.70;;;0.70;;
9445;SDS011;4761;49.490;10.908;2023-05-10T04:06:46;0.70;;;0.70;;
9445;SDS011;4761;49.490;10.908;2023-05-10T04:09:12;0.90;;;0.90;;
9445;SDS011;4761;49.490;10.908;2023-05-10T04:11:37;0.90;;;0.90;;
9445;SDS011;4761;49.490;10.908;2023-05-10T04:14:09;0.70;;;0.70;;
9445;SDS011;4761;49.490;10.908;2023-05-10T04:16:35;0.70;;;0.70;;
9445;SDS011;4761;49.490;10.908;2023-05-10T04:19:00;0.77;;;0.77;;
9445;SDS011;4761;49.490;10.908;2023-05-10T04:21:25;0.77;;;0.77;;
9445;SDS011;4761;49.490;10.908;2023-05-10T04:23:51;0.63;;;0.63;;
9445;SDS011;4761;49.490;10.908;2023-05-10T04:26:16;0.97;;;0.87;;
9445;SDS011;4761;49.490;10.908;2023-05-10T04:28:42;0.50;;;0.50;;
9445;SDS011;4761;49.490;10.908;2023-05-10T04:31:08;1.00;;;0.80;;
9445;SDS011;4761;49.490;10.908;2023-05-10T04:33:35;0.70;;;0.70;;
9445;SDS011;4761;49.490;10.908;2023-05-10T04:36:01;0.70;;;0.70;;
9445;SDS011;4761;49.490;10.908;2023-05-10T04:38:27;0.67;;;0.60;;
9445;SDS011;4761;49.490;10.908;2023-05-10T04:40:53;0.60;;;0.60;;
9445;SDS011;4761;49.490;10.908;2023-05-10T04:43:19;0.60;;;0.60;;
9445;SDS011;4761;49.490;10.908;2023-05-10T04:45:45;0.60;;;0.60;;
9445;SDS011;4761;49.490;10.908;2023-05-10T04:48:11;0.67;;;0.67;;
9445;SDS011;4761;49.490;10.908;2023-05-10T04:50:36;0.60;;;0.60;;
9445;SDS011;4761;49.490;10.908;2023-05-10T04:53:02;0.50;;;0.50;;
9445;SDS011;4761;49.490;10.908;2023-05-10T04:55:27;0.53;;;0.53;;
9445;SDS011;4761;49.490;10.908;2023-05-10T04:57:53;0.70;;;0.70;;
9445;SDS011;4761;49.490;10.908;2023-05-10T05:00:21;0.60;;;0.60;;
9445;SDS011;4761;49.490;10.908;2023-05-10T05:02:47;0.60;;;0.60;;
9445;SDS011;4761;49.490;10.908;2023-05-10T05:05:13;0.53;;;0.53;;
9445;SDS011;4761;49.490;10.908;2023-05-10T05:07:38;0.53;;;0.53;;
9445;SDS011;4761;49.490;10.908;2023-05-10T05:10:05;0.60;;;0.60;;
9445;SDS011;4761;49.490;10.908;2023-05-10T05:12:31;0.70;;;0.70;;
9445;SDS011;4761;49.490;10.908;2023-05-10T05:14:57;0.67;;;0.67;;
9445;SDS011;4761;49.490;10.908;2023-05-10T05:17:23;0.50;;;0.50;;
9445;SDS011;4761;49.490;10.908;2023-05-10T05:19:48;0.57;;;0.57;;
9445;SDS011;4761;49.490;10.908;2023-05-10T05:22:14;0.50;;;0.50;;
9445;SDS011;4761;49.490;10.908;2023-05-10T05:24:39;0.73;;;0.73;;
9445;SDS011;4761;49.490;10.908;2023-05-10T05:27:05;0.47;;;0.47;;
9445;SDS011;4761;49.490;10.908;2023-05-10T05:29:30;0.50;;;0.50;;
9445;SDS011;4761;49.490;10.908;2023-05-10T05:31:56;0.50;;;0.50;;
9445;SDS011;4761;49.490;10.908;2023-05-10T05:34:22;0.50;;;0.50;;
9445;SDS011;4761;49.490;10.908;2023-05-10T05:36:49;0.50;;;0.50;;
9445;SDS011;4761;49.490;10.908;2023-05-10T05:39:14;0.67;;;0.50;;
9445;SDS011;4761;49.490;10.908;2023-05-10T05:41:40;0.60;;;0.60;;
9445;SDS011;4761;49.490;10.908;2023-05-10T05:44:05;0.47;;;0.47;;
9445;SDS011;4761;49.490;10.908;2023-05-10T05:46:31;0.43;;;0.43;;
9445;SDS011;4761;49.490;10.908;2023-05-10T05:48:56;0.50;;;0.50;;
9445;SDS011;4761;49.490;10.908;2023-05-10T05:51:22;0.57;;;0.57;;
9445;SDS011;4761;49.490;10.908;2023-05-10T05:53:47;0.50;;;0.50;;
9445;SDS011;4761;49.490;10.908;2023-05-10T05:56:13;0.63;;;0.63;;
9445;SDS011;4761;49.490;10.908;2023-05-10T05:58:38;0.53;;;0.53;;
9445;SDS011;4761;49.490;10.908;2023-05-10T06:01:04;0.60;;;0.60;;
9445;SDS011;4761;49.490;10.908;2023-05-10T06:03:30;0.50;;;0.50;;
9445;SDS011;4761;49.490;10.908;2023-05-10T06:05:55;0.70;;;0.70;;
9445;SDS011;4761;49.490;10.908;2023-05-10T06:08:21;0.47;;;0.47;;
9445;SDS011;4761;49.490;10.908;2023-05-10T06:10:47;0.50;;;0.50;;
9445;SDS011;4761;49.490;10.908;2023-05-10T06:13:12;0.63;;;0.60;;
9445;SDS011;4761;49.490;10.908;2023-05-10T06:15:38;0.53;;;0.53;;
9445;SDS011;4761;49.490;10.908;2023-05-10T06:18:04;0.50;;;0.50;;
9445;SDS011;4761;49.490;10.908;2023-05-10T06:20:30;1.43;;;0.60;;
9445;SDS011;4761;49.490;10.908;2023-05-10T06:22:59;0.57;;;0.57;;
9445;SDS011;4761;49.490;10.908;2023-05-10T06:25:24;0.43;;;0.43;;
9445;SDS011;4761;49.490;10.908;2023-05-10T06:27:50;0.80;;;0.47;;
9445;SDS011;4761;49.490;10.908;2023-05-10T06:30:20;0.50;;;0.50;;
9445;SDS011;4761;49.490;10.908;2023-05-10T06:32:47;1.43;;;0.50;;
9445;SDS011;4761;49.490;10.908;2023-05-10T06:35:13;0.40;;;0.40;;
9445;SDS011;4761;49.490;10.908;2023-05-10T06:37:38;0.43;;;0.43;;
9445;SDS011;4761;49.490;10.908;2023-05-10T06:40:05;1.13;;;0.40;;
9445;SDS011;4761;49.490;10.908;2023-05-10T06:42:31;0.40;;;0.40;;
9445;SDS011;4761;49.490;10.908;2023-05-10T06:44:57;0.50;;;0.50;;
9445;SDS011;4761;49.490;10.908;2023-05-10T06:47:22;0.50;;;0.50;;
9445;SDS011;4761;49.490;10.908;2023-05-10T06:49:48;0.67;;;0.60;;
9445;SDS011;4761;49.490;10.908;2023-05-10T06:52:13;0.60;;;0.53;;
9445;SDS011;4761;49.490;10.908;2023-05-10T06:54:39;0.50;;;0.50;;
9445;SDS011;4761;49.490;10.908;2023-05-10T06:57:04;0.47;;;0.47;;
9445;SDS011;4761;49.490;10.908;2023-05-10T06:59:30;0.40;;;0.40;;
9445;SDS011;4761;49.490;10.908;2023-05-10T07:01:56;0.63;;;0.60;;
9445;SDS011;4761;49.490;10.908;2023-05-10T07:04:22;0.53;;;0.53;;
9445;SDS011;4761;49.490;10.908;2023-05-10T07:06:47;0.40;;;0.40;;
9445;SDS011;4761;49.490;10.908;2023-05-10T07:09:14;0.57;;;0.57;;
9445;SDS011;4761;49.490;10.908;2023-05-10T07:11:40;0.63;;;0.53;;
9445;SDS011;4761;49.490;10.908;2023-05-10T07:14:06;1.33;;;0.60;;
9445;SDS011;4761;49.490;10.908;2023-05-10T07:16:31;1.50;;;0.63;;
9445;SDS011;4761;49.490;10.908;2023-05-10T07:18:57;1.07;;;0.50;;
9445;SDS011;4761;49.490;10.908;2023-05-10T07:21:22;0.80;;;0.53;;
9445;SDS011;4761;49.490;10.908;2023-05-10T07:23:49;1.47;;;0.70;;
9445;SDS011;4761;49.490;10.908;2023-05-10T07:26:15;1.13;;;0.60;;
9445;SDS011;4761;49.490;10.908;2023-05-10T07:28:40;0.80;;;0.60;;
9445;SDS011;4761;49.490;10.908;2023-05-10T07:31:06;0.50;;;0.50;;
9445;SDS011;4761;49.490;10.908;2023-05-10T07:33:32;0.90;;;0.60;;
9445;SDS011;4761;49.490;10.908;2023-05-10T07:35:57;0.60;;;0.60;;
9445;SDS011;4761;49.490;10.908;2023-05-10T07:38:23;0.50;;;0.50;;
9445;SDS011;4761;49.490;10.908;2023-05-10T07:40:48;0.67;;;0.60;;
9445;SDS011;4761;49.490;10.908;2023-05-10T07:43:13;0.60;;;0.60;;
9445;SDS011;4761;49.490;10.908;2023-05-10T07:45:39;1.13;;;0.57;;
9445;SDS011;4761;49.490;10.908;2023-05-10T07:48:04;0.63;;;0.50;;
9445;SDS011;4761;49.490;10.908;2023-05-10T07:50:30;1.13;;;0.50;;
9445;SDS011;4761;49.490;10.908;2023-05-10T07:52:56;0.93;;;0.70;;
9445;SDS011;4761;49.490;10.908;2023-05-10T07:55:21;0.90;;;0.47;;
9445;SDS011;4761;49.490;10.908;2023-05-10T07:57:47;0.80;;;0.50;;
9445;SDS011;4761;49.490;10.908;2023-05-10T08:00:13;0.50;;;0.50;;
9445;SDS011;4761;49.490;10.908;2023-05-10T08:02:41;0.77;;;0.50;;
9445;SDS011;4761;49.490;10.908;2023-05-10T08:05:07;0.67;;;0.50;;
9445;SDS011;4761;49.490;10.908;2023-05-10T08:07:32;0.83;;;0.60;;
9445;SDS011;4761;49.490;10.908;2023-05-10T08:09:58;0.50;;;0.50;;
9445;SDS011;4761;49.490;10.908;2023-05-10T08:12:24;0.77;;;0.50;;
9445;SDS011;4761;49.490;10.908;2023-05-10T08:14:49;0.70;;;0.60;;
9445;SDS011;4761;49.490;10.908;2023-05-10T08:17:15;0.40;;;0.40;;
9445;SDS011;4761;49.490;10.908;2023-05-10T08:19:40;1.03;;;0.50;;
9445;SDS011;4761;49.490;10.908;2023-05-10T08:22:06;1.07;;;0.50;;
9445;SDS011;4761;49.490;10.908;2023-05-10T08:24:32;0.40;;;0.40;;
9445;SDS011;4761;49.490;10.908;2023-05-10T08:26:59;0.50;;;0.50;;
9445;SDS011;4761;49.490;10.908;2023-05-10T08:29:25;0.50;;;0.50;;
9445;SDS011;4761;49.490;10.908;2023-05-10T08:31:51;0.90;;;0.50;;
9445;SDS011;4761;49.490;10.908;2023-05-10T08:34:16;0.50;;;0.50;;
9445;SDS011;4761;49.490;10.908;2023-05-10T08:36:42;0.50;;;0.50;;
9445;SDS011;4761;49.490;10.908;2023-05-10T08:39:07;0.63;;;0.50;;
9445;SDS011;4761;49.490;10.908;2023-05-10T08:41:33;1.63;;;0.50;;
9445;SDS011;4761;49.490;10.908;2023-05-10T08:43:59;1.00;;;0.60;;
9445;SDS011;4761;49.490;10.908;2023-05-10T08:46:30;1.50;;;0.40;;
9445;SDS011;4761;49.490;10.908;2023-05-10T08:48:58;0.50;;;0.50;;
9445;SDS011;4761;49.490;10.908;2023-05-10T08:51:26;0.50;;;0.50;;
9445;SDS011;4761;49.490;10.908;2023-05-10T08:53:57;0.60;;;0.60;;
9445;SDS011;4761;49.490;10.908;2023-05-10T08:56:23;0.40;;;0.40;;
9445;SDS011;4761;49.490;10.908;2023-05-10T08:58:49;0.40;;;0.40;;
9445;SDS011;4761;49.490;10.908;2023-05-10T09:01:16;1.23;;;0.40;;
9445;SDS011;4761;49.490;10.908;2023-05-10T09:03:43;1.27;;;0.50;;
9445;SDS011;4761;49.490;10.908;2023-05-10T09:06:11;0.53;;;0.53;;
9445;SDS011;4761;49.490;10.908;2023-05-10T09:08:38;1.20;;;0.70;;
9445;SDS011;4761;49.490;10.908;2023-05-10T09:11:04;0.37;;;0.37;;
9445;SDS011;4761;49.490;10.908;2023-05-10T09:13:30;0.87;;;0.50;;
9445;SDS011;4761;49.490;10.908;2023-05-10T09:15:56;0.40;;;0.40;;
9445;SDS011;4761;49.490;10.908;2023-05-10T09:18:22;0.50;;;0.50;;
9445;SDS011;4761;49.490;10.908;2023-05-10T09:20:48;0.60;;;0.60;;
9445;SDS011;4761;49.490;10.908;2023-05-10T09:23:14;0.40;;;0.40;;
9445;SDS011;4761;49.490;10.908;2023-05-10T09:25:41;0.90;;;0.80;;
9445;SDS011;4761;49.490;10.908;2023-05-10T09:28:07;0.50;;;0.50;;
9445;SDS011;4761;49.490;10.908;2023-05-10T09:30:33;0.50;;;0.50;;
9445;SDS011;4761;49.490;10.908;2023-05-10T09:32:59;0.40;;;0.40;;
9445;SDS011;4761;49.490;10.908;2023-05-10T09:35:29;1.17;;;0.50;;
9445;SDS011;4761;49.490;10.908;2023-05-10T09:37:58;1.17;;;0.70;;
9445;SDS011;4761;49.490;10.908;2023-05-10T09:40:26;0.50;;;0.50;;
9445;SDS011;4761;49.490;10.908;2023-05-10T09:42:54;0.60;;;0.57;;
9445;SDS011;4761;49.490;10.908;2023-05-10T09:45:23;0.50;;;0.50;;
9445;SDS011;4761;49.490;10.908;2023-05-10T09:47:50;0.40;;;0.40;;
9445;SDS011;4761;49.490;10.908;2023-05-10T09:50:15;1.20;;;0.40;;
9445;SDS011;4761;49.490;10.908;2023-05-10T09:55:21;0.60;;;0.60;;
9445;SDS011;4761;49.490;10.908;2023-05-10T09:57:48;1.07;;;0.60;;
9445;SDS011;4761;49.490;10.908;2023-05-10T10:00:22;0.77;;;0.50;;
9445;SDS011;4761;49.490;10.908;2023-05-10T10:02:54;1.17;;;0.60;;
9445;SDS011;4761;49.490;10.908;2023-05-10T10:05:27;0.63;;;0.53;;
9445;SDS011;4761;49.490;10.908;2023-05-10T10:08:05;2.50;;;0.60;;
9445;SDS011;4761;49.490;10.908;2023-05-10T10:10:32;0.50;;;0.50;;
9445;SDS011;4761;49.490;10.908;2023-05-10T10:12:58;0.50;;;0.40;;
9445;SDS011;4761;49.490;10.908;2023-05-10T10:15:24;0.50;;;0.40;;
9445;SDS011;4761;49.490;10.908;2023-05-10T10:17:51;0.70;;;0.50;;
9445;SDS011;4761;49.490;10.908;2023-05-10T10:20:18;1.07;;;0.60;;
9445;SDS011;4761;49.490;10.908;2023-05-10T10:22:44;0.57;;;0.50;;
9445;SDS011;4761;49.490;10.908;2023-05-10T10:25:11;2.20;;;0.60;;
9445;SDS011;4761;49.490;10.908;2023-05-10T10:27:45;0.60;;;0.50;;
9445;SDS011;4761;49.490;10.908;2023-05-10T10:35:31;1.43;;;0.60;;
9445;SDS011;4761;49.490;10.908;2023-05-10T10:37:57;0.70;;;0.60;;
9445;SDS011;4761;49.490;10.908;2023-05-10T10:40:30;0.77;;;0.50;;
9445;SDS011;4761;49.490;10.908;2023-05-10T10:42:57;1.10;;;0.53;;
9445;SDS011;4761;49.490;10.908;2023-05-10T10:45:43;1.17;;;0.57;;
9445;SDS011;4761;49.490;10.908;2023-05-10T10:48:22;0.87;;;0.53;;
9445;SDS011;4761;49.490;10.908;2023-05-10T10:50:55;1.70;;;0.43;;
9445;SDS011;4761;49.490;10.908;2023-05-10T10:53:23;0.50;;;0.50;;
9445;SDS011;4761;49.490;10.908;2023-05-10T10:55:53;0.40;;;0.40;;
9445;SDS011;4761;49.490;10.908;2023-05-10T10:58:32;0.73;;;0.50;;
9445;SDS011;4761;49.490;10.908;2023-05-10T11:01:12;0.70;;;0.70;;
9445;SDS011;4761;49.490;10.908;2023-05-10T11:04:31;0.50;;;0.50;;
9445;SDS011;4761;49.490;10.908;2023-05-10T11:06:34;1.60;;;0.50;;
9445;SDS011;4761;49.490;10.908;2023-05-10T11:09:07;0.47;;;0.40;;
9445;SDS011;4761;49.490;10.908;2023-05-10T11:11:37;0.80;;;0.50;;
9445;SDS011;4761;49.490;10.908;2023-05-10T11:14:14;0.40;;;0.40;;
9445;SDS011;4761;49.490;10.908;2023-05-10T11:16:44;0.60;;;0.53;;
9445;SDS011;4761;49.490;10.908;2023-05-10T11:19:10;0.50;;;0.50;;
9445;SDS011;4761;49.490;10.908;2023-05-10T11:21:47;0.50;;;0.50;;
9445;SDS011;4761;49.490;10.908;2023-05-10T11:24:15;0.50;;;0.50;;
9445;SDS011;4761;49.490;10.908;2023-05-10T11:26:42;0.70;;;0.50;;
9445;SDS011;4761;49.490;10.908;2023-05-10T11:29:07;0.43;;;0.43;;
9445;SDS011;4761;49.490;10.908;2023-05-10T11:31:33;0.40;;;0.40;;
9445;SDS011;4761;49.490;10.908;2023-05-10T11:33:59;0.50;;;0.50;;
9445;SDS011;4761;49.490;10.908;2023-05-10T11:38:53;0.70;;;0.57;;
9445;SDS011;4761;49.490;10.908;2023-05-10T11:41:21;0.40;;;0.40;;
9445;SDS011;4761;49.490;10.908;2023-05-10T11:43:51;0.40;;;0.40;;
9445;SDS011;4761;49.490;10.908;2023-05-10T11:46:19;0.40;;;0.40;;
9445;SDS011;4761;49.490;10.908;2023-05-10T11:48:46;0.50;;;0.50;;
9445;SDS011;4761;49.490;10.908;2023-05-10T11:51:15;0.50;;;0.50;;
9445;SDS011;4761;49.490;10.908;2023-05-10T11:53:44;0.67;;;0.50;;
9445;SDS011;4761;49.490;10.908;2023-05-10T11:56:10;0.50;;;0.50;;
9445;SDS011;4761;49.490;10.908;2023-05-10T11:58:37;0.68;;;0.40;;
9445;SDS011;4761;49.490;10.908;2023-05-10T12:01:04;0.40;;;0.40;;
9445;SDS011;4761;49.490;10.908;2023-05-10T12:03:31;0.60;;;0.60;;
9445;SDS011;4761;49.490;10.908;2023-05-10T12:05:57;0.83;;;0.53;;
9445;SDS011;4761;49.490;10.908;2023-05-10T12:08:23;0.60;;;0.60;;
9445;SDS011;4761;49.490;10.908;2023-05-10T12:10:51;2.63;;;0.70;;
9445;SDS011;4761;49.490;10.908;2023-05-10T12:13:17;1.87;;;0.77;;
9445;SDS011;4761;49.490;10.908;2023-05-10T12:15:43;2.57;;;0.83;;
9445;SDS011;4761;49.490;10.908;2023-05-10T12:18:10;1.70;;;0.70;;
9445;SDS011;4761;49.490;10.908;2023-05-10T12:20:36;0.70;;;0.50;;
9445;SDS011;4761;49.490;10.908;2023-05-10T12:23:02;0.63;;;0.60;;
9445;SDS011;4761;49.490;10.908;2023-05-10T12:25:35;0.70;;;0.60;;
9445;SDS011;4761;49.490;10.908;2023-05-10T12:28:03;0.50;;;0.50;;
9445;SDS011;4761;49.490;10.908;2023-05-10T12:30:31;0.80;;;0.40;;
9445;SDS011;4761;49.490;10.908;2023-05-10T12:33:15;0.70;;;0.60;;
9445;SDS011;4761;49.490;10.908;2023-05-10T12:35:44;0.63;;;0.53;;
9445;SDS011;4761;49.490;10.908;2023-05-10T12:38:33;0.85;;;0.60;;
9445;SDS011;4761;49.490;10.908;2023-05-10T12:41:07;0.50;;;0.50;;
9445;SDS011;4761;49.490;10.908;2023-05-10T12:43:34;0.93;;;0.50;;
9445;SDS011;4761;49.490;10.908;2023-05-10T12:46:10;0.90;;;0.70;;
9445;SDS011;4761;49.490;10.908;2023-05-10T12:48:37;0.40;;;0.40;;
9445;SDS011;4761;49.490;10.908;2023-05-10T12:51:04;1.00;;;0.60;;
9445;SDS011;4761;49.490;10.908;2023-05-10T12:53:33;1.03;;;0.60;;
9445;SDS011;4761;49.490;10.908;2023-05-10T12:55:59;1.13;;;0.60;;
9445;SDS011;4761;49.490;10.908;2023-05-10T12:58:24;0.50;;;0.50;;
9445;SDS011;4761;49.490;10.908;2023-05-10T13:00:50;0.80;;;0.50;;
9445;SDS011;4761;49.490;10.908;2023-05-10T13:03:16;0.57;;;0.53;;
9445;SDS011;4761;49.490;10.908;2023-05-10T13:05:42;0.77;;;0.50;;
9445;SDS011;4761;49.490;10.908;2023-05-10T13:08:07;0.50;;;0.50;;
9445;SDS011;4761;49.490;10.908;2023-05-10T13:10:33;0.50;;;0.50;;
9445;SDS011;4761;49.490;10.908;2023-05-10T13:12:58;1.27;;;0.53;;
9445;SDS011;4761;49.490;10.908;2023-05-10T13:15:24;0.63;;;0.53;;
9445;SDS011;4761;49.490;10.908;2023-05-10T13:17:50;0.57;;;0.50;;
9445;SDS011;4761;49.490;10.908;2023-05-10T13:20:16;0.87;;;0.60;;
9445;SDS011;4761;49.490;10.908;2023-05-10T13:22:42;0.60;;;0.50;;
9445;SDS011;4761;49.490;10.908;2023-05-10T13:25:09;0.50;;;0.50;;
9445;SDS011;4761;49.490;10.908;2023-05-10T13:27:35;0.43;;;0.43;;
9445;SDS011;4761;49.490;10.908;2023-05-10T13:30:01;0.90;;;0.50;;
9445;SDS011;4761;49.490;10.908;2023-05-10T13:32:28;0.77;;;0.40;;
9445;SDS011;4761;49.490;10.908;2023-05-10T13:34:54;0.30;;;0.30;;
9445;SDS011;4761;49.490;10.908;2023-05-10T13:37:20;1.03;;;0.43;;
9445;SDS011;4761;49.490;10.908;2023-05-10T13:39:45;0.53;;;0.50;;
9445;SDS011;4761;49.490;10.908;2023-05-10T13:42:11;0.47;;;0.40;;
9445;SDS011;4761;49.490;10.908;2023-05-10T13:44:36;0.73;;;0.40;;
9445;SDS011;4761;49.490;10.908;2023-05-10T13:47:03;0.60;;;0.40;;
9445;SDS011;4761;49.490;10.908;2023-05-10T13:49:29;0.53;;;0.50;;
9445;SDS011;4761;49.490;10.908;2023-05-10T13:51:54;0.50;;;0.50;;
9445;SDS011;4761;49.490;10.908;2023-05-10T13:54:20;1.90;;;0.60;;
9445;SDS011;4761;49.490;10.908;2023-05-10T13:56:47;0.50;;;0.40;;
9445;SDS011;4761;49.490;10.908;2023-05-10T13:59:13;2.53;;;0.50;;
9445;SDS011;4761;49.490;10.908;2023-05-10T14:01:40;2.10;;;0.60;;
9445;SDS011;4761;49.490;10.908;2023-05-10T14:04:06;0.57;;;0.50;;
9445;SDS011;4761;49.490;10.908;2023-05-10T14:06:34;0.43;;;0.40;;
9445;SDS011;4761;49.490;10.908;2023-05-10T14:09:03;0.60;;;0.50;;
9445;SDS011;4761;49.490;10.908;2023-05-10T14:11:29;0.67;;;0.50;;
9445;SDS011;4761;49.490;10.908;2023-05-10T14:13:54;1.67;;;0.50;;
9445;SDS011;4761;49.490;10.908;2023-05-10T14:16:20;0.70;;;0.50;;
9445;SDS011;4761;49.490;10.908;2023-05-10T14:18:46;0.50;;;0.50;;
9445;SDS011;4761;49.490;10.908;2023-05-10T14:21:11;0.57;;;0.30;;
9445;SDS011;4761;49.490;10.908;2023-05-10T14:23:37;0.40;;;0.40;;
9445;SDS011;4761;49.490;10.908;2023-05-10T14:26:03;0.93;;;0.40;;
9445;SDS011;4761;49.490;10.908;2023-05-10T14:28:28;1.27;;;0.63;;
9445;SDS011;4761;49.490;10.908;2023-05-10T14:30:54;0.40;;;0.40;;
9445;SDS011;4761;49.490;10.908;2023-05-10T14:33:19;0.40;;;0.30;;
9445;SDS011;4761;49.490;10.908;2023-05-10T14:35:46;0.40;;;0.40;;
9445;SDS011;4761;49.490;10.908;2023-05-10T14:38:12;0.40;;;0.40;;
9445;SDS011;4761;49.490;10.908;2023-05-10T14:40:37;0.50;;;0.40;;
9445;SDS011;4761;49.490;10.908;2023-05-10T14:43:03;0.73;;;0.43;;
9445;SDS011;4761;49.490;10.908;2023-05-10T14:45:29;0.40;;;0.40;;
9445;SDS011;4761;49.490;10.908;2023-05-10T14:47:54;0.30;;;0.30;;
9445;SDS011;4761;49.490;10.908;2023-05-10T14:50:20;0.90;;;0.50;;
9445;SDS011;4761;49.490;10.908;2023-05-10T14:52:45;0.80;;;0.60;;
9445;SDS011;4761;49.490;10.908;2023-05-10T14:55:11;1.90;;;0.70;;
9445;SDS011;4761;49.490;10.908;2023-05-10T14:57:36;0.70;;;0.60;;
9445;SDS011;4761;49.490;10.908;2023-05-10T15:00:02;0.57;;;0.47;;
9445;SDS011;4761;49.490;10.908;2023-05-10T15:02:29;0.97;;;0.50;;
9445;SDS011;4761;49.490;10.908;2023-05-10T15:04:56;0.63;;;0.40;;
9445;SDS011;4761;49.490;10.908;2023-05-10T15:07:22;0.60;;;0.50;;
9445;SDS011;4761;49.490;10.908;2023-05-10T15:09:48;0.40;;;0.40;;
9445;SDS011;4761;49.490;10.908;2023-05-10T15:12:13;0.40;;;0.40;;
9445;SDS011;4761;49.490;10.908;2023-05-10T15:14:39;0.53;;;0.43;;
9445;SDS011;4761;49.490;10.908;2023-05-10T15:17:05;0.50;;;0.50;;
9445;SDS011;4761;49.490;10.908;2023-05-10T15:19:31;1.50;;;0.50;;
9445;SDS011;4761;49.490;10.908;2023-05-10T15:21:58;0.50;;;0.40;;